Terminal Aerodrome Forecast
Issued by NWS Wilmington, OH

Current Version | Previous Version | Text Only | Print | Product List | Glossary Off
Versions: 1 2 3 4 5 6 7 8 9 10 11 12 13 14 15 16 17 18 19 20 21 22 23 24 25 26 27 28

000
FTUS41 KILN 192003 AAB
TAFDAY
TAF AMD
KDAY 192003Z 1920/2018 11010G20KT 4SM -TSRA BKN035CB BKN090
      TEMPO 1921/1924 VRB10G25KT 2SM TSRA OVC015CB
     FM200000 07006KT P6SM VCTS BKN110CB
     FM200200 05007KT P6SM BKN090
     FM201000 07007KT P6SM BKN010
     FM201400 12007KT P6SM BKN017
     FM201600 14007KT P6SM VCSH BKN035=

USA.gov is the U.S. government's official web portal to all federal, state and local government web resources and services.